createdAt,value
2022-11-01T00:02:01.237Z,48.20
2022-11-01T00:04:28.534Z,49.00
2022-11-01T00:06:55.858Z,49.43
2022-11-01T00:09:23.243Z,49.27
2022-11-01T00:11:50.899Z,47.93
2022-11-01T00:14:20.513Z,48.10
2022-11-01T00:16:48.379Z,50.40
2022-11-01T00:19:15.755Z,46.83
2022-11-01T00:21:43.105Z,49.40
2022-11-01T00:24:10.561Z,50.07
2022-11-01T00:26:38.011Z,49.20
2022-11-01T00:29:05.664Z,51.47
2022-11-01T00:31:34.337Z,48.57
2022-11-01T00:34:01.801Z,53.03
2022-11-01T00:36:29.381Z,50.00
2022-11-01T00:38:56.575Z,47.63
2022-11-01T00:41:23.816Z,50.43
2022-11-01T00:43:51.003Z,49.40
2022-11-01T00:46:18.539Z,52.43
2022-11-01T00:48:47.069Z,49.03
2022-11-01T00:51:14.275Z,49.70
2022-11-01T00:53:41.492Z,49.57
2022-11-01T00:56:08.817Z,50.63
2022-11-01T00:58:36.000Z,51.73
2022-11-01T01:01:03.400Z,48.93
2022-11-01T01:03:30.744Z,51.80
2022-11-01T01:05:59.549Z,52.47
2022-11-01T01:08:27.588Z,52.33
2022-11-01T01:10:54.733Z,50.03
2022-11-01T01:13:22.523Z,52.83
2022-11-01T01:15:49.739Z,51.77
2022-11-01T01:18:17.546Z,51.27
2022-11-01T01:20:44.814Z,51.00
2022-11-01T01:23:13.445Z,54.13
2022-11-01T01:25:41.347Z,51.80
2022-11-01T01:28:08.809Z,50.30
2022-11-01T01:30:40.200Z,53.33
2022-11-01T01:33:07.913Z,50.90
2022-11-01T01:35:35.327Z,52.50
2022-11-01T01:38:02.849Z,49.70
2022-11-01T01:40:32.123Z,52.20
2022-11-01T01:42:59.624Z,51.03
2022-11-01T01:45:34.699Z,49.93
2022-11-01T01:48:09.697Z,50.03
2022-11-01T01:50:41.725Z,47.93
2022-11-01T01:53:14.584Z,46.87
2022-11-01T01:55:48.261Z,49.43
2022-11-01T01:58:18.758Z,49.20
2022-11-01T02:00:46.210Z,47.97
2022-11-01T02:03:14.777Z,47.37
2022-11-01T02:05:47.260Z,49.73
2022-11-01T02:08:15.946Z,46.60
2022-11-01T02:10:45.037Z,51.17
2022-11-01T02:13:13.953Z,47.50
2022-11-01T02:15:55.820Z,48.80
2022-11-01T02:18:34.666Z,47.67
2022-11-01T02:21:37.916Z,45.63
2022-11-01T02:24:41.850Z,46.70
2022-11-01T02:27:14.884Z,46.07
2022-11-01T02:30:04.909Z,44.20
2022-11-01T02:32:44.681Z,46.27
2022-11-01T02:35:18.185Z,44.50
2022-11-01T02:37:52.956Z,44.37
2022-11-01T02:40:27.513Z,44.30
2022-11-01T02:43:00.142Z,44.40
2022-11-01T02:45:34.238Z,42.07
2022-11-01T02:48:04.359Z,42.63
2022-11-01T02:50:36.464Z,43.83
2022-11-01T02:53:04.501Z,43.30
2022-11-01T02:55:32.021Z,44.27
2022-11-01T02:58:02.078Z,41.40
2022-11-01T03:00:31.874Z,44.57
2022-11-01T03:03:16.220Z,44.00
2022-11-01T03:06:02.612Z,41.20
2022-11-01T03:08:32.958Z,43.10
2022-11-01T03:11:07.060Z,44.47
2022-11-01T03:13:57.747Z,42.60
2022-11-01T03:16:30.807Z,41.80
2022-11-01T03:19:06.196Z,42.27
2022-11-01T03:21:38.870Z,42.60
2022-11-01T03:24:17.260Z,43.83
2022-11-01T03:26:49.257Z,41.43
2022-11-01T03:29:20.646Z,40.80
2022-11-01T03:31:50.138Z,41.90
2022-11-01T03:34:20.022Z,39.73
2022-11-01T03:36:51.566Z,42.60
2022-11-01T03:39:22.604Z,41.77
2022-11-01T03:41:54.154Z,41.27
2022-11-01T03:44:22.064Z,40.13
2022-11-01T03:46:50.365Z,38.20
2022-11-01T03:49:19.916Z,41.70
2022-11-01T03:51:48.941Z,37.77
2022-11-01T03:54:16.363Z,36.97
2022-11-01T03:56:43.525Z,42.17
2022-11-01T03:59:10.947Z,40.07
2022-11-01T04:01:38.361Z,41.30
2022-11-01T04:04:05.812Z,36.77
2022-11-01T04:06:34.454Z,40.40
2022-11-01T04:09:01.792Z,39.93
2022-11-01T04:11:29.064Z,37.80
2022-11-01T04:13:56.308Z,36.97
2022-11-01T04:16:23.676Z,37.40
2022-11-01T04:18:50.971Z,39.23
2022-11-01T04:21:20.537Z,36.10
2022-11-01T04:23:49.406Z,37.13
2022-11-01T04:26:18.836Z,35.83
2022-11-01T04:28:46.274Z,37.63
2022-11-01T04:31:13.458Z,38.03
2022-11-01T04:33:40.631Z,37.70
2022-11-01T04:36:08.785Z,37.57
2022-11-01T04:38:35.988Z,35.13
2022-11-01T04:41:04.736Z,32.50
2022-11-01T04:43:31.962Z,35.90
2022-11-01T04:45:59.157Z,36.00
2022-11-01T04:48:26.448Z,35.80
2022-11-01T04:50:53.955Z,34.57
2022-11-01T04:53:21.134Z,32.90
2022-11-01T04:55:48.350Z,34.53
2022-11-01T04:58:16.884Z,32.03
2022-11-01T05:00:44.276Z,32.97
2022-11-01T05:03:11.788Z,33.67
2022-11-01T05:05:39.471Z,30.80
2022-11-01T05:08:07.970Z,31.70
2022-11-01T05:10:37.290Z,31.97
2022-11-01T05:13:05.584Z,32.17
2022-11-01T05:15:36.902Z,30.80
2022-11-01T05:18:07.132Z,34.50
2022-11-01T05:20:34.394Z,33.33
2022-11-01T05:23:03.564Z,33.57
2022-11-01T05:25:34.070Z,32.43
2022-11-01T05:28:06.679Z,33.33
2022-11-01T05:30:36.525Z,33.27
2022-11-01T05:33:06.005Z,34.70
2022-11-01T05:35:35.040Z,33.43
2022-11-01T05:38:03.910Z,34.40
2022-11-01T05:40:31.793Z,32.27
2022-11-01T05:42:59.424Z,33.77
2022-11-01T05:45:26.864Z,34.00
2022-11-01T05:47:55.538Z,34.00
2022-11-01T05:50:22.718Z,34.53
2022-11-01T05:52:49.901Z,34.17
2022-11-01T05:55:17.452Z,33.40
2022-11-01T05:57:44.815Z,32.30
2022-11-01T06:00:12.684Z,32.40
2022-11-01T06:02:39.949Z,33.80
2022-11-01T06:05:09.332Z,33.17
2022-11-01T06:07:36.932Z,32.53
2022-11-01T06:10:05.313Z,33.80
2022-11-01T06:12:32.582Z,31.67
2022-11-01T06:14:59.824Z,31.40
2022-11-01T06:17:27.098Z,31.57
2022-11-01T06:19:54.320Z,34.13
2022-11-01T06:22:22.896Z,31.80
2022-11-01T06:24:50.078Z,31.70
2022-11-01T06:27:17.377Z,32.30
2022-11-01T06:29:44.623Z,30.77
2022-11-01T06:32:11.832Z,32.00
2022-11-01T06:34:42.316Z,30.70
2022-11-01T06:37:12.172Z,31.40
2022-11-01T06:39:40.780Z,30.50
2022-11-01T06:42:09.124Z,28.77
2022-11-01T06:44:36.295Z,54.23
2022-11-01T06:47:03.615Z,31.00
2022-11-01T06:49:30.820Z,28.87
2022-11-01T06:51:58.201Z,25.13
2022-11-01T06:54:25.515Z,26.00
2022-11-01T06:56:54.136Z,23.77
2022-11-01T06:59:21.357Z,22.20
2022-11-01T07:01:48.722Z,22.60
2022-11-01T07:04:15.986Z,19.03
2022-11-01T07:06:43.527Z,20.47
2022-11-01T07:09:11.065Z,19.07
2022-11-01T07:11:38.268Z,18.43
2022-11-01T07:14:07.032Z,16.03
2022-11-01T07:16:34.189Z,14.63
2022-11-01T07:19:01.475Z,14.23
2022-11-01T07:21:28.771Z,14.03
2022-11-01T07:23:56.112Z,14.30
2022-11-01T07:26:23.435Z,12.07
2022-11-01T07:28:50.814Z,11.17
2022-11-01T07:31:19.397Z,10.67
2022-11-01T07:33:46.607Z,10.90
2022-11-01T07:36:13.989Z,11.03
2022-11-01T07:38:41.185Z,11.67
2022-11-01T07:41:08.404Z,11.23
2022-11-01T07:43:35.657Z,8.93
2022-11-01T07:46:02.859Z,8.63
2022-11-01T07:48:31.493Z,8.93
2022-11-01T07:50:59.253Z,7.63
2022-11-01T07:53:26.536Z,7.60
2022-11-01T07:55:53.772Z,7.30
2022-11-01T07:58:20.936Z,6.73
2022-11-01T08:00:48.295Z,7.37
2022-11-01T08:03:17.354Z,6.97
2022-11-01T08:05:46.979Z,6.97
2022-11-01T08:08:15.327Z,6.97
2022-11-01T08:10:42.737Z,6.90
2022-11-01T08:13:16.123Z,6.03
2022-11-01T08:15:43.872Z,6.23
2022-11-01T08:18:11.652Z,5.70
2022-11-01T08:20:39.316Z,4.87
2022-11-01T08:23:08.598Z,6.23
2022-11-01T08:25:36.263Z,7.03
2022-11-01T08:28:04.367Z,5.97
2022-11-01T08:30:32.250Z,5.83
2022-11-01T08:33:00.762Z,5.47
2022-11-01T08:35:28.655Z,5.53
2022-11-01T08:37:56.119Z,5.70
2022-11-01T08:40:26.133Z,5.30
2022-11-01T08:42:53.449Z,5.00
2022-11-01T08:45:20.897Z,4.20
2022-11-01T08:47:48.080Z,5.10
2022-11-01T08:50:17.142Z,5.93
2022-11-01T08:52:44.431Z,4.47
2022-11-01T08:55:11.703Z,5.03
2022-11-01T08:57:40.285Z,4.93
2022-11-01T09:00:08.567Z,5.17
2022-11-01T09:02:36.171Z,3.47
2022-11-01T09:05:04.292Z,3.97
2022-11-01T09:07:33.116Z,4.03
2022-11-01T09:10:00.336Z,3.93
2022-11-01T09:12:27.929Z,3.17
2022-11-01T09:14:56.569Z,2.23
2022-11-01T09:17:23.852Z,1.77
2022-11-01T09:19:51.227Z,1.70
2022-11-01T09:22:18.448Z,1.70
2022-11-01T09:24:45.669Z,1.57
2022-11-01T09:27:13.001Z,1.10
2022-11-01T09:29:40.279Z,1.10
2022-11-01T09:32:08.856Z,1.00
2022-11-01T09:34:36.052Z,1.47
2022-11-01T09:37:03.387Z,1.07
2022-11-01T09:39:30.689Z,1.00
2022-11-01T09:42:01.539Z,1.40
2022-11-01T09:44:32.011Z,1.47
2022-11-01T09:47:05.139Z,1.30
2022-11-01T09:49:38.247Z,1.17
2022-11-01T09:52:06.227Z,0.63
2022-11-01T09:54:33.707Z,1.03
2022-11-01T09:57:11.793Z,1.30
2022-11-01T09:59:43.552Z,2.00
2022-11-01T10:02:38.716Z,1.13
2022-11-01T10:05:18.957Z,1.00
2022-11-01T10:08:01.003Z,1.10
2022-11-01T10:10:37.774Z,1.20
2022-11-01T10:13:16.135Z,1.73
2022-11-01T10:15:54.988Z,1.53
2022-11-01T10:18:26.988Z,1.13
2022-11-01T10:20:58.072Z,1.90
2022-11-01T10:23:42.601Z,1.57
2022-11-01T10:26:16.160Z,1.70
2022-11-01T10:28:51.669Z,1.20
2022-11-01T10:31:23.183Z,1.47
2022-11-01T10:33:56.792Z,1.33
2022-11-01T10:36:28.724Z,2.30
2022-11-01T10:41:52.408Z,1.20
2022-11-01T10:44:26.379Z,2.10
2022-11-01T10:46:55.333Z,1.80
2022-11-01T10:49:35.065Z,1.60
2022-11-01T10:52:20.242Z,1.50
2022-11-01T10:54:51.343Z,1.80
2022-11-01T10:57:30.154Z,1.87
2022-11-01T11:00:01.560Z,1.67
2022-11-01T11:02:34.681Z,1.70
2022-11-01T11:05:01.914Z,2.00
2022-11-01T11:07:31.983Z,2.07
2022-11-01T11:12:33.825Z,2.27
2022-11-01T11:15:12.336Z,1.87
2022-11-01T11:17:42.076Z,1.90
2022-11-01T11:20:10.982Z,2.40
2022-11-01T11:22:42.588Z,2.47
2022-11-01T11:25:16.291Z,2.07
2022-11-01T11:27:45.617Z,1.60
2022-11-01T11:30:25.679Z,1.70
2022-11-01T11:32:53.322Z,1.60
2022-11-01T11:35:21.978Z,1.37
2022-11-01T11:37:56.171Z,1.97
2022-11-01T11:40:25.438Z,1.70
2022-11-01T11:42:54.336Z,2.13
2022-11-01T11:45:26.914Z,1.97
2022-11-01T11:47:54.779Z,1.90
2022-11-01T11:50:30.803Z,2.70
2022-11-01T11:53:02.762Z,2.07
2022-11-01T11:55:37.165Z,2.00
2022-11-01T11:58:14.472Z,1.87
2022-11-01T12:00:47.240Z,1.80
2022-11-01T12:03:15.000Z,2.10
2022-11-01T12:05:52.583Z,1.97
2022-11-01T12:08:35.779Z,2.20
2022-11-01T12:11:04.022Z,1.70
2022-11-01T12:13:34.483Z,1.57
2022-11-01T12:16:15.061Z,1.73
2022-11-01T12:18:50.990Z,2.63
2022-11-01T12:21:21.969Z,1.80
2022-11-01T12:23:55.143Z,2.67
2022-11-01T12:26:23.566Z,1.77
2022-11-01T12:29:00.112Z,1.97
2022-11-01T12:31:31.447Z,1.30
2022-11-01T12:34:04.553Z,1.63
2022-11-01T12:36:35.971Z,2.70
2022-11-01T12:39:21.145Z,1.90
2022-11-01T12:41:53.866Z,2.20
2022-11-01T12:44:31.138Z,1.97
2022-11-01T12:47:04.181Z,1.60
2022-11-01T12:49:36.475Z,1.93
2022-11-01T12:52:10.897Z,2.07
2022-11-01T12:54:44.543Z,2.40
2022-11-01T12:57:14.246Z,2.23
2022-11-01T12:59:43.353Z,1.70
2022-11-01T13:02:45.327Z,1.83
2022-11-01T13:05:19.405Z,2.23
2022-11-01T13:07:58.894Z,2.33
2022-11-01T13:10:32.795Z,1.80
2022-11-01T13:13:11.323Z,2.70
2022-11-01T13:15:50.175Z,2.27
2022-11-01T13:18:26.899Z,2.40
2022-11-01T13:20:59.305Z,1.60
2022-11-01T13:23:32.530Z,1.90
2022-11-01T13:26:06.380Z,2.23
2022-11-01T13:29:02.590Z,2.43
2022-11-01T13:31:43.803Z,2.60
2022-11-01T13:34:28.238Z,2.03
2022-11-01T13:37:04.821Z,1.83
2022-11-01T13:39:42.281Z,2.73
2022-11-01T13:42:13.808Z,2.30
2022-11-01T13:44:44.838Z,2.23
2022-11-01T13:47:28.387Z,2.37
2022-11-01T13:50:26.730Z,1.90
2022-11-01T13:53:00.124Z,1.80
2022-11-01T13:55:33.985Z,2.57
2022-11-01T13:58:04.964Z,1.37
2022-11-01T14:00:42.545Z,1.50
2022-11-01T14:03:25.362Z,2.30
2022-11-01T14:06:26.945Z,1.80
2022-11-01T14:09:27.855Z,3.07
2022-11-01T14:11:56.410Z,2.10
2022-11-01T14:14:52.439Z,1.77
2022-11-01T14:17:59.057Z,2.57
2022-11-01T14:20:46.327Z,1.70
2022-11-01T14:23:50.484Z,1.97
2022-11-01T14:26:49.137Z,2.23
2022-11-01T14:29:16.952Z,1.80
2022-11-01T14:31:50.185Z,2.67
2022-11-01T14:34:28.148Z,1.87
2022-11-01T14:37:00.284Z,1.60
2022-11-01T14:39:34.557Z,1.73
2022-11-01T14:42:04.845Z,1.50
2022-11-01T14:44:37.342Z,1.80
2022-11-01T14:47:18.566Z,1.63
2022-11-01T14:49:45.825Z,1.40
2022-11-01T14:52:19.092Z,1.93
2022-11-01T14:54:50.683Z,2.00
2022-11-01T14:57:21.075Z,1.90
2022-11-01T14:59:48.290Z,2.60
2022-11-01T15:02:17.600Z,2.00
2022-11-01T15:04:45.748Z,2.13
2022-11-01T15:07:19.092Z,1.87
2022-11-01T15:09:55.727Z,3.70
2022-11-01T15:12:25.629Z,1.83
2022-11-01T15:14:55.685Z,2.07
2022-11-01T15:17:27.103Z,1.83
2022-11-01T15:19:55.970Z,1.90
2022-11-01T15:22:27.192Z,2.33
2022-11-01T15:24:57.708Z,2.53
2022-11-01T15:27:32.015Z,1.53
2022-11-01T15:29:59.373Z,2.80
2022-11-01T15:32:30.147Z,1.97
2022-11-01T15:34:59.087Z,2.00
2022-11-01T15:37:27.951Z,1.93
2022-11-01T15:39:55.581Z,2.40
2022-11-01T15:42:24.601Z,1.80
2022-11-01T15:44:51.879Z,2.20
2022-11-01T15:47:22.533Z,2.33
2022-11-01T15:49:56.193Z,1.83
2022-11-01T15:52:26.929Z,2.97
2022-11-01T15:54:57.475Z,1.80
2022-11-01T15:57:31.173Z,2.30
2022-11-01T16:00:02.454Z,1.87
2022-11-01T16:02:43.733Z,2.27
2022-11-01T16:05:18.907Z,31.37
2022-11-01T16:07:46.888Z,8.87
2022-11-01T16:10:18.934Z,3.37
2022-11-01T16:12:46.785Z,11.00
2022-11-01T16:15:22.431Z,2.60
2022-11-01T16:17:49.681Z,2.00
2022-11-01T16:20:31.561Z,2.23
2022-11-01T16:23:00.174Z,3.67
2022-11-01T16:25:29.670Z,1.90
2022-11-01T16:28:04.303Z,1.90
2022-11-01T16:30:44.406Z,2.10
2022-11-01T16:33:43.107Z,2.40
2022-11-01T16:36:33.261Z,1.87
2022-11-01T16:39:00.526Z,1.90
2022-11-01T16:41:37.884Z,2.73
2022-11-01T16:44:13.304Z,1.70
2022-11-01T16:46:40.716Z,2.77
2022-11-01T16:49:19.699Z,2.87
2022-11-01T16:51:48.749Z,3.23
2022-11-01T16:54:15.959Z,2.20
2022-11-01T16:56:45.505Z,2.67
2022-11-01T16:59:25.425Z,2.40
2022-11-01T17:01:54.391Z,2.20
2022-11-01T17:04:22.195Z,2.30
2022-11-01T17:06:50.925Z,3.40
2022-11-01T17:09:19.950Z,2.73
2022-11-01T17:11:51.127Z,2.53
2022-11-01T17:14:19.659Z,3.30
2022-11-01T17:16:49.939Z,4.13
2022-11-01T17:19:22.637Z,4.27
2022-11-01T17:21:52.040Z,4.27
2022-11-01T17:24:22.182Z,5.20
2022-11-01T17:26:53.717Z,3.60
2022-11-01T17:29:20.918Z,3.10
2022-11-01T17:31:48.102Z,2.83
2022-11-01T17:34:15.271Z,2.60
2022-11-01T17:36:47.144Z,2.80
2022-11-01T17:39:15.745Z,3.77
2022-11-01T17:41:42.987Z,3.00
2022-11-01T17:44:11.262Z,6.33
2022-11-01T17:46:38.505Z,3.47
2022-11-01T17:49:05.702Z,2.40
2022-11-01T17:51:32.939Z,2.50
2022-11-01T17:54:00.196Z,3.27
2022-11-01T17:56:28.781Z,3.03
2022-11-01T17:58:55.972Z,2.87
2022-11-01T18:01:23.244Z,3.47
2022-11-01T18:03:50.569Z,2.50
2022-11-01T18:06:17.896Z,2.67
2022-11-01T18:08:47.055Z,3.40
2022-11-01T18:11:31.163Z,2.80
2022-11-01T18:14:08.977Z,3.33
2022-11-01T18:16:45.719Z,3.37
2022-11-01T18:19:38.109Z,2.70
2022-11-01T18:22:13.184Z,3.13
2022-11-01T18:24:43.434Z,3.00
2022-11-01T18:27:12.508Z,2.93
2022-11-01T18:29:44.106Z,3.73
2022-11-01T18:32:19.744Z,2.60
2022-11-01T18:34:51.759Z,22.70
2022-11-01T18:37:26.555Z,6.67
2022-11-01T18:40:00.979Z,8.47
2022-11-01T18:42:28.365Z,69.80
2022-11-01T18:44:59.957Z,3.57
2022-11-01T18:47:32.606Z,2.30
2022-11-01T18:50:01.765Z,2.47
2022-11-01T18:52:29.053Z,2.63
2022-11-01T18:54:57.098Z,2.80
2022-11-01T18:57:27.702Z,2.50
2022-11-01T18:59:55.073Z,2.43
2022-11-01T19:02:25.251Z,2.40
2022-11-01T19:05:09.427Z,2.83
2022-11-01T19:08:04.902Z,1.87
2022-11-01T19:10:23.941Z,2.47
2022-11-01T19:12:52.363Z,2.30
2022-11-01T19:15:23.064Z,2.73
2022-11-01T19:17:57.177Z,2.33
2022-11-01T19:20:27.113Z,2.07
2022-11-01T19:22:56.593Z,2.20
2022-11-01T19:25:25.880Z,2.23
2022-11-01T19:27:55.994Z,2.87
2022-11-01T19:30:26.091Z,3.00
2022-11-01T19:32:57.964Z,2.93
2022-11-01T19:35:25.219Z,2.30
2022-11-01T19:37:54.305Z,2.13
2022-11-01T19:40:27.887Z,4.87
2022-11-01T19:42:58.820Z,4.83
2022-11-01T19:45:30.976Z,3.93
2022-11-01T19:48:01.260Z,3.93
2022-11-01T19:50:41.907Z,3.33
2022-11-01T19:53:20.552Z,4.80
2022-11-01T19:55:53.490Z,6.20
2022-11-01T19:58:27.175Z,6.53
2022-11-01T20:01:30.626Z,6.33
2022-11-01T20:04:00.830Z,4.90
2022-11-01T20:06:34.410Z,4.30
2022-11-01T20:09:04.201Z,4.50
2022-11-01T20:11:32.309Z,3.13
2022-11-01T20:13:59.864Z,2.80
2022-11-01T20:16:27.045Z,2.83
2022-11-01T20:18:54.423Z,3.10
2022-11-01T20:21:23.023Z,2.90
2022-11-01T20:23:50.288Z,3.00
2022-11-01T20:26:17.666Z,3.00
2022-11-01T20:28:44.897Z,7.40
2022-11-01T20:31:12.420Z,3.13
2022-11-01T20:33:39.720Z,2.97
2022-11-01T20:36:11.140Z,3.07
2022-11-01T20:38:40.585Z,2.30
2022-11-01T20:41:08.028Z,2.80
2022-11-01T20:43:35.575Z,3.23
2022-11-01T20:46:03.033Z,2.17
2022-11-01T20:48:30.434Z,2.43
2022-11-01T20:50:58.053Z,1.80
2022-11-01T20:53:29.490Z,1.90
2022-11-01T20:55:58.870Z,2.13
2022-11-01T20:58:26.667Z,2.83
2022-11-01T21:00:54.086Z,2.10
2022-11-01T21:03:23.054Z,2.47
2022-11-01T21:05:51.590Z,2.20
2022-11-01T21:08:22.505Z,2.30
2022-11-01T21:10:56.352Z,2.27
2022-11-01T21:13:29.014Z,2.40
2022-11-01T21:15:58.240Z,2.00
2022-11-01T21:18:37.349Z,2.40
2022-11-01T21:21:28.683Z,3.43
2022-11-01T21:23:57.725Z,1.70
2022-11-01T21:26:30.117Z,2.70
2022-11-01T21:29:03.336Z,2.23
2022-11-01T21:31:32.967Z,2.50
2022-11-01T21:34:04.337Z,3.30
2022-11-01T21:36:34.928Z,2.57
2022-11-01T21:39:09.763Z,2.03
2022-11-01T21:41:43.609Z,15.63
2022-11-01T21:44:21.132Z,2.30
2022-11-01T21:46:56.559Z,2.20
2022-11-01T21:49:26.863Z,2.00
2022-11-01T21:51:56.085Z,2.23
2022-11-01T21:54:23.372Z,1.50
2022-11-01T21:56:50.930Z,1.87
2022-11-01T21:59:20.837Z,1.87
2022-11-01T22:01:49.697Z,2.70
2022-11-01T22:04:17.939Z,2.03
2022-11-01T22:06:45.753Z,1.93
2022-11-01T22:09:14.141Z,2.57
2022-11-01T22:11:41.873Z,1.70
2022-11-01T22:14:09.510Z,2.10
2022-11-01T22:16:38.936Z,1.93
2022-11-01T22:19:06.946Z,1.90
2022-11-01T22:21:34.472Z,2.47
2022-11-01T22:24:02.257Z,2.40
2022-11-01T22:26:29.727Z,1.97
2022-11-01T22:28:57.117Z,2.20
2022-11-01T22:31:24.397Z,2.37
2022-11-01T22:33:54.359Z,2.00
2022-11-01T22:36:24.263Z,2.00
2022-11-01T22:38:54.016Z,2.20
2022-11-01T22:41:28.370Z,1.80
2022-11-01T22:44:02.246Z,3.43
2022-11-01T22:46:36.187Z,2.30
2022-11-01T22:49:11.782Z,2.50
2022-11-01T22:51:42.917Z,2.13
2022-11-01T22:54:29.616Z,1.63
2022-11-01T22:57:01.105Z,2.47
2022-11-01T22:59:33.543Z,2.10
2022-11-01T23:02:22.289Z,1.80
2022-11-01T23:04:58.043Z,2.30
2022-11-01T23:07:32.990Z,1.57
2022-11-01T23:10:00.732Z,2.83
2022-11-01T23:12:27.906Z,1.80
2022-11-01T23:14:55.027Z,1.73
2022-11-01T23:17:25.279Z,2.40
2022-11-01T23:19:57.708Z,2.10
2022-11-01T23:22:29.812Z,1.73
2022-11-01T23:24:57.797Z,1.67
2022-11-01T23:27:26.994Z,1.90
2022-11-01T23:29:55.634Z,2.27
2022-11-01T23:32:23.750Z,2.03
2022-11-01T23:34:58.249Z,2.20
2022-11-01T23:37:26.890Z,1.83
2022-11-01T23:39:54.131Z,2.40
2022-11-01T23:42:24.972Z,2.00
2022-11-01T23:44:55.647Z,1.90
2022-11-01T23:47:29.207Z,1.80
2022-11-01T23:50:02.531Z,2.40
2022-11-01T23:52:39.489Z,2.33
2022-11-01T23:55:16.055Z,2.13
2022-11-01T23:57:43.299Z,1.77
